Saint Louis, Missouri
Traffic Map
Current Weather Conditions
Saint Louis, Missouri
Clear
Clear
10°
Feels Like: 10°
Wind Chill: 10° Ceiling: Unl
Heat Index: 10° Visibility: 10mi
Dew Point: Wind: 6mph
Humidity: 89% Direction: 140° (SE)
Pressure: 29.59in Gusts: 0mph
Raw Report DataKCPS 210753Z AUTO 14005KT 10SM CLR 10/08 A2959 RMK AO2 SLP019 T01000083
Traffic Incident Summary
Active as of:
Severity:
Category:
InformationThere was an issue retrieving the traffic information for this location. Please try a different location or try again shortly.
Advertisements
Track Severe Weather on mobile